Time;durP1;ratioP1;P1;durP2;ratioP2;P2;SDS_P1;SDS_P2;PMS_P1;PMS_P2;Temp;Humidity;BMP_temperature;BMP_pressure;BME280_temperature;BME280_humidity;BME280_pressure;Samples;Min_cycle;Max_cycle;Signal;HPM_P1;HPM_P2
2021/01/27 00:00:59;;;;;;;31.77;14.63;;;;;;;3.09;60.60;99395.41;5082642;28;20484;-78
2021/01/27 00:03:25;;;;;;;35.33;15.50;;;;;;;3.08;60.55;99403.19;5079276;28;20543;-78
2021/01/27 00:05:53;;;;;;;42.40;16.73;;;;;;;3.06;60.79;99400.66;5085762;28;20052;-78
2021/01/27 00:08:20;;;;;;;25.23;13.20;;;;;;;3.03;60.69;99392.94;5085482;28;20102;-78
2021/01/27 00:10:47;;;;;;;28.33;13.77;;;;;;;3.07;60.65;99394.56;5083972;28;20052;-79
2021/01/27 00:13:18;;;;;;;34.72;13.90;;;;;;;3.04;60.88;99400.69;5086419;28;20418;-77
2021/01/27 00:15:46;;;;;;;32.60;15.40;;;;;;;3.08;60.55;99398.03;5085839;28;20371;-79
2021/01/27 00:18:18;;;;;;;26.35;13.43;;;;;;;3.08;61.09;99398.88;5083656;28;20091;-78
2021/01/27 00:20:44;;;;;;;33.55;16.40;;;;;;;3.05;61.00;99399.78;5086995;28;20041;-78
2021/01/27 00:23:11;;;;;;;29.38;14.85;;;;;;;3.02;61.20;99399.00;5096149;28;20055;-79
2021/01/27 00:25:38;;;;;;;29.05;15.52;;;;;;;2.92;61.41;99402.69;5095992;28;20070;-79
2021/01/27 00:28:07;;;;;;;34.22;16.08;;;;;;;2.78;62.12;99399.53;5089700;28;20119;-78
2021/01/27 00:30:36;;;;;;;36.47;16.65;;;;;;;2.74;62.45;99399.59;5077527;28;20159;-77
2021/01/27 00:33:03;;;;;;;31.42;15.40;;;;;;;2.80;62.27;99403.78;5083136;28;20089;-79
2021/01/27 00:35:33;;;;;;;33.47;15.10;;;;;;;2.68;62.44;99388.50;5090278;28;20044;-78
2021/01/27 00:38:01;;;;;;;34.75;17.42;;;;;;;2.65;62.72;99393.72;5082745;28;20063;-76
2021/01/27 00:40:28;;;;;;;32.90;16.23;;;;;;;2.65;62.75;99398.91;5086594;28;20126;-75
2021/01/27 00:42:54;;;;;;;35.95;17.20;;;;;;;2.64;62.80;99400.66;5085061;28;20056;-76
2021/01/27 00:45:21;;;;;;;35.60;15.57;;;;;;;2.67;62.84;99399.72;5085529;28;20476;-76
2021/01/27 00:47:47;;;;;;;36.10;17.15;;;;;;;2.69;62.91;99398.81;5090824;28;20491;-75
2021/01/27 00:50:15;;;;;;;34.72;17.48;;;;;;;2.66;63.04;99396.28;5090838;28;20063;-75
2021/01/27 00:52:42;;;;;;;34.63;18.15;;;;;;;2.70;63.28;99397.06;5090330;28;20063;-77
2021/01/27 00:55:16;;;;;;;37.90;19.27;;;;;;;2.77;63.25;99377.13;5091064;28;20140;-77
2021/01/27 00:57:43;;;;;;;35.80;18.05;;;;;;;2.75;63.10;99385.78;5090951;28;20040;-75
2021/01/27 01:00:14;;;;;;;37.67;18.27;;;;;;;2.77;62.88;99383.16;5090159;28;20105;-75
2021/01/27 01:02:40;;;;;;;;;;;;;;;2.97;62.50;99386.16;5091972;28;20073;-79
2021/01/27 01:05:10;;;;;;;33.55;15.32;;;;;;;2.88;62.43;99391.53;5090954;28;19919;-79
2021/01/27 01:07:36;;;;;;;34.67;16.10;;;;;;;2.88;62.62;99391.53;5088945;28;20048;-77
2021/01/27 01:10:06;;;;;;;35.20;17.67;;;;;;;2.90;62.76;99391.50;5078999;28;20109;-76
2021/01/27 01:12:32;;;;;;;34.15;16.40;;;;;;;2.97;62.61;99393.09;5076394;28;20044;-74
2021/01/27 01:14:59;;;;;;;38.15;16.33;;;;;;;3.04;62.65;99386.88;5092331;28;20058;-76
2021/01/27 01:17:25;;;;;;;34.40;17.50;;;;;;;3.11;62.28;99398.81;5092211;28;20044;-75
2021/01/27 01:19:51;;;;;;;31.40;15.68;;;;;;;3.16;62.46;99396.13;5092128;28;20044;-75
2021/01/27 01:22:18;;;;;;;30.17;16.02;;;;;;;3.20;62.37;99397.78;5092049;28;20052;-75
2021/01/27 01:24:44;;;;;;;34.78;16.30;;;;;;;3.24;62.23;99392.47;5093875;28;20083;-75
2021/01/27 01:27:11;;;;;;;28.65;17.42;;;;;;;3.22;62.33;99399.44;5094584;28;20060;-74
2021/01/27 01:29:37;;;;;;;31.17;16.38;;;;;;;3.27;62.02;99395.00;5095500;28;20098;-75
2021/01/27 01:32:04;;;;;;;33.22;15.65;;;;;;;3.24;62.25;99389.88;5094292;28;20380;-76
2021/01/27 01:34:30;;;;;;;33.08;16.02;;;;;;;3.20;62.26;99388.25;5094664;28;20106;-76
2021/01/27 01:36:57;;;;;;;20.45;12.20;;;;;;;3.17;62.14;99393.50;5095838;28;20043;-75
2021/01/27 01:39:24;;;;;;;25.38;12.85;;;;;;;3.16;62.25;99388.38;5095660;28;20131;-76
2021/01/27 01:41:50;;;;;;;29.02;15.13;;;;;;;3.17;62.11;99392.66;5096379;28;20059;-75
2021/01/27 01:44:17;;;;;;;30.08;13.70;;;;;;;3.16;62.01;99396.13;5097640;28;20564;-76
2021/01/27 01:46:43;;;;;;;29.30;13.77;;;;;;;3.16;61.99;99396.13;5095748;28;20047;-74
2021/01/27 01:49:13;;;;;;;34.33;16.75;;;;;;;3.16;62.13;99389.22;5095333;28;20057;-75
2021/01/27 01:51:46;;;;;;;26.63;13.00;;;;;;;3.16;62.30;99394.41;5095410;28;20063;-77
2021/01/27 01:54:19;;;;;;;31.88;14.57;;;;;;;3.19;62.10;99399.50;5093233;28;20119;-75
2021/01/27 01:56:51;;;;;;;30.42;14.80;;;;;;;3.19;62.27;99394.31;5094738;28;20048;-76
2021/01/27 01:59:18;;;;;;;25.20;13.85;;;;;;;3.20;62.05;99387.41;5094609;28;20048;-76
2021/01/27 02:01:48;;;;;;;26.90;14.65;;;;;;;3.16;61.90;99386.63;5094868;28;20083;-76
2021/01/27 02:04:14;;;;;;;29.05;15.50;;;;;;;3.15;62.25;99390.09;5094824;28;20044;-75
2021/01/27 02:06:40;;;;;;;31.17;14.55;;;;;;;3.11;62.30;99393.63;5093306;28;20321;-74
2021/01/27 02:09:07;;;;;;;25.42;14.82;;;;;;;3.18;62.22;99389.19;5093255;28;20062;-75
2021/01/27 02:11:51;;;;;;;27.55;14.93;;;;;;;3.21;62.07;99384.78;5094073;28;20044;-75
2021/01/27 02:14:32;;;;;;;27.55;13.93;;;;;;;3.24;61.77;99379.53;5095093;28;20048;-75
2021/01/27 02:17:03;;;;;;;26.70;15.13;;;;;;;3.25;61.97;99391.59;5095081;28;20143;-75
2021/01/27 02:19:50;;;;;;;30.15;15.40;;;;;;;3.24;62.05;99376.94;5095323;28;20052;-76
2021/01/27 02:22:48;;;;;;;30.95;15.23;;;;;;;3.25;62.08;99389.00;5094506;28;20098;-75
2021/01/27 02:25:50;;;;;;;25.15;14.05;;;;;;;3.26;61.98;99388.13;5095532;28;20044;-76
2021/01/27 02:28:39;;;;;;;28.40;13.40;;;;;;;3.18;61.97;99394.38;5094953;28;20079;-75
2021/01/27 02:31:14;;;;;;;24.20;13.48;;;;;;;3.08;62.23;99388.50;5094280;28;20131;-75
2021/01/27 02:34:25;;;;;;;27.58;14.35;;;;;;;3.04;62.39;99386.88;5093515;28;20044;-75
2021/01/27 02:36:58;;;;;;;26.80;14.55;;;;;;;3.02;62.04;99388.66;5030115;28;20137;-75
2021/01/27 02:39:29;;;;;;;23.48;12.85;;;;;;;3.02;62.28;99388.66;5031689;28;20049;-76
2021/01/27 02:42:05;;;;;;;24.55;12.68;;;;;;;3.03;62.18;99395.53;5068136;28;20055;-76
2021/01/27 02:44:37;;;;;;;28.30;13.00;;;;;;;3.02;62.22;99393.84;5094700;28;20274;-76
2021/01/27 02:47:09;;;;;;;26.25;13.45;;;;;;;2.97;62.29;99387.91;5094343;28;20055;-75
2021/01/27 02:49:42;;;;;;;23.48;10.90;;;;;;;2.95;62.04;99387.09;5094063;28;20494;-74
2021/01/27 02:52:13;;;;;;;23.83;12.70;;;;;;;2.96;62.10;99387.06;5094332;28;20091;-75
2021/01/27 02:54:46;;;;;;;18.73;11.00;;;;;;;2.96;61.99;99393.97;5094467;28;20143;-76
2021/01/27 02:57:17;;;;;;;22.48;12.02;;;;;;;2.94;62.15;99385.38;5094220;28;20052;-74
2021/01/27 02:59:59;;;;;;;19.70;10.40;;;;;;;2.95;61.96;99393.13;5092688;28;20052;-77
2021/01/27 03:02:31;;;;;;;20.75;10.85;;;;;;;2.97;61.81;99396.53;5089653;28;20054;-75
2021/01/27 03:05:05;;;;;;;19.17;11.02;;;;;;;2.96;61.60;99397.41;5089395;28;20044;-76
2021/01/27 03:07:35;;;;;;;21.20;10.98;;;;;;;2.97;61.82;99400.84;5076880;28;20470;-75
2021/01/27 03:10:06;;;;;;;22.45;11.52;;;;;;;3.00;61.71;99404.22;5073124;28;20055;-75
2021/01/27 03:12:32;;;;;;;20.88;10.27;;;;;;;3.01;61.53;99403.34;5073455;28;20511;-74
2021/01/27 03:14:59;;;;;;;24.52;9.27;;;;;;;3.02;61.43;99410.22;5073513;28;20131;-75
2021/01/27 03:17:30;;;;;;;18.00;9.05;;;;;;;3.04;61.44;99402.41;5074429;28;20044;-74
2021/01/27 03:20:01;;;;;;;18.92;8.63;;;;;;;3.04;61.29;99407.59;5072976;28;20135;-74
2021/01/27 03:22:38;;;;;;;16.50;8.80;;;;;;;3.01;61.22;99408.50;5073250;28;20488;-74
2021/01/27 03:25:10;;;;;;;16.35;7.88;;;;;;;3.00;61.19;99400.78;5073439;28;20121;-75
2021/01/27 03:27:42;;;;;;;14.02;7.53;;;;;;;2.98;61.26;99407.72;5072576;28;20082;-75
2021/01/27 03:30:11;;;;;;;16.60;9.10;;;;;;;2.97;61.01;99404.28;5076819;28;20048;-74
2021/01/27 03:32:43;;;;;;;14.65;7.63;;;;;;;3.02;60.86;99409.38;5092473;28;20044;-74
2021/01/27 03:35:14;;;;;;;13.27;7.60;;;;;;;3.06;60.74;99411.00;5092283;28;20135;-75
2021/01/27 03:37:46;;;;;;;15.77;7.25;;;;;;;3.07;60.55;99404.94;5092618;28;20057;-75
2021/01/27 03:40:16;;;;;;;12.35;6.80;;;;;;;3.08;60.62;99404.06;5092710;28;20056;-75
2021/01/27 03:42:51;;;;;;;13.98;6.57;;;;;;;3.10;60.55;99407.47;5093123;28;20054;-74
2021/01/27 03:45:21;;;;;;;10.13;6.28;;;;;;;3.09;60.21;99410.09;5092952;28;20105;-74
2021/01/27 03:47:52;;;;;;;10.50;6.25;;;;;;;3.04;60.45;99407.59;5092333;28;20117;-75
2021/01/27 03:50:22;;;;;;;12.70;6.05;;;;;;;3.08;60.17;99414.41;5093083;28;20084;-75
2021/01/27 03:52:53;;;;;;;14.48;7.10;;;;;;;3.10;60.07;99420.41;5092706;28;20098;-75
2021/01/27 03:55:24;;;;;;;12.55;7.55;;;;;;;3.14;59.81;99419.47;5093187;28;20044;-75
2021/01/27 03:57:57;;;;;;;;;;;;;;;3.34;59.61;99422.50;5092578;28;20043;-74
2021/01/27 04:00:28;;;;;;;13.85;7.68;;;;;;;3.23;59.56;99424.44;5092935;28;19920;-76
2021/01/27 04:03:15;;;;;;;17.13;8.68;;;;;;;3.20;59.83;99423.66;5092782;28;20159;-75
2021/01/27 04:05:42;;;;;;;16.42;8.82;;;;;;;3.24;59.35;99418.38;5092966;28;20119;-74
2021/01/27 04:08:09;;;;;;;17.45;8.13;;;;;;;3.23;59.58;99418.41;5092537;28;20068;-75
2021/01/27 04:10:35;;;;;;;15.27;8.15;;;;;;;3.22;59.45;99433.09;5092569;28;20047;-75
2021/01/27 04:13:03;;;;;;;18.98;8.77;;;;;;;3.24;59.66;99426.16;5090900;28;20052;-75
2021/01/27 04:15:29;;;;;;;13.70;8.07;;;;;;;3.26;59.19;99429.56;5091973;28;20097;-74
2021/01/27 04:17:55;;;;;;;14.93;8.10;;;;;;;3.24;59.22;99428.75;5091860;28;20050;-74
2021/01/27 04:20:22;;;;;;;16.48;8.40;;;;;;;3.23;59.13;99429.63;5092432;28;20044;-76
2021/01/27 04:22:48;;;;;;;20.38;9.20;;;;;;;3.20;59.23;99427.09;5092500;28;20048;-75
2021/01/27 04:25:16;;;;;;;17.95;9.43;;;;;;;3.21;58.98;99425.38;5092650;28;20047;-75
2021/01/27 04:27:43;;;;;;;16.42;7.88;;;;;;;3.24;58.85;99420.97;5092741;28;20048;-76
2021/01/27 04:30:11;;;;;;;12.60;7.60;;;;;;;3.26;58.75;99421.78;5092992;28;20475;-75
2021/01/27 04:32:37;;;;;;;11.38;5.88;;;;;;;3.28;58.68;99419.16;5092719;28;20047;-75
2021/01/27 04:35:04;;;;;;;12.52;6.88;;;;;;;3.30;58.66;99426.00;5092818;28;20411;-76
2021/01/27 04:37:31;;;;;;;15.10;7.53;;;;;;;3.30;58.68;99426.00;5093507;28;20044;-76
2021/01/27 04:39:57;;;;;;;13.90;6.97;;;;;;;3.28;58.50;99422.59;5091027;28;20052;-75
2021/01/27 04:42:27;;;;;;;11.63;6.40;;;;;;;3.26;58.65;99424.38;5091315;28;20481;-75
2021/01/27 04:44:54;;;;;;;10.45;6.05;;;;;;;3.26;58.61;99421.78;5092283;28;20046;-75
2021/01/27 04:47:27;;;;;;;12.32;6.20;;;;;;;3.24;58.78;99426.16;5090979;28;20499;-76
2021/01/27 04:49:58;;;;;;;11.23;6.97;;;;;;;3.26;58.86;99419.19;5095579;28;20116;-75
2021/01/27 04:52:43;;;;;;;13.10;6.75;;;;;;;3.25;58.91;99424.41;5095788;28;20138;-75
2021/01/27 04:55:26;;;;;;;13.13;6.93;;;;;;;3.22;58.94;99424.47;5092481;28;20047;-76
2021/01/27 04:58:12;;;;;;;15.75;8.40;;;;;;;3.18;59.15;99420.25;5092433;28;20127;-74
2021/01/27 05:00:47;;;;;;;16.17;7.88;;;;;;;3.17;59.11;99421.16;5096098;28;20044;-75
2021/01/27 05:03:28;;;;;;;16.80;9.60;;;;;;;3.19;59.02;99416.78;5096432;28;20058;-73
2021/01/27 05:06:00;;;;;;;16.27;7.32;;;;;;;3.18;59.07;99415.94;5095502;28;20075;-75
2021/01/27 05:08:30;;;;;;;16.45;7.90;;;;;;;3.19;59.04;99412.47;5094588;28;20056;-75
2021/01/27 05:11:00;;;;;;;15.93;8.27;;;;;;;3.18;59.30;99430.63;5095419;28;20123;-75
2021/01/27 05:13:33;;;;;;;15.75;7.65;;;;;;;3.10;59.39;99423.00;5095468;28;20083;-75
2021/01/27 05:16:01;;;;;;;15.15;7.65;;;;;;;3.13;59.42;99422.97;5082283;28;20054;-74
2021/01/27 05:18:28;;;;;;;13.82;8.07;;;;;;;3.12;59.26;99413.44;5095151;28;20095;-75
2021/01/27 05:20:55;;;;;;;17.55;8.40;;;;;;;3.10;59.24;99425.59;5095469;28;20055;-74
2021/01/27 05:23:22;;;;;;;16.73;8.55;;;;;;;3.08;59.29;99419.59;5095412;28;20052;-76
2021/01/27 05:26:00;;;;;;;16.92;9.13;;;;;;;3.06;59.48;99419.63;5095013;28;20040;-74
2021/01/27 05:28:34;;;;;;;21.83;9.93;;;;;;;3.08;59.39;99432.53;5095170;28;20493;-75
2021/01/27 05:31:00;;;;;;;17.35;8.82;;;;;;;3.08;59.46;99429.94;5095158;28;20048;-75
2021/01/27 05:33:47;;;;;;;15.60;8.27;;;;;;;3.02;59.57;99432.69;5094531;28;20048;-75
2021/01/27 05:36:18;;;;;;;21.52;10.02;;;;;;;3.03;59.47;99432.63;5095722;28;20129;-76
2021/01/27 05:38:45;;;;;;;20.70;8.85;;;;;;;3.10;59.42;99433.34;5096652;28;20094;-76
2021/01/27 05:41:20;;;;;;;16.27;7.78;;;;;;;3.11;59.32;99435.06;5095756;28;20050;-75
2021/01/27 05:43:49;;;;;;;20.02;9.38;;;;;;;3.08;59.37;99429.09;5095600;28;20058;-74
2021/01/27 05:46:17;;;;;;;19.73;9.05;;;;;;;3.03;59.38;99442.16;5095630;28;20044;-74
2021/01/27 05:48:49;;;;;;;15.77;8.35;;;;;;;2.97;59.50;99439.69;5095826;28;20051;-77
2021/01/27 05:51:29;;;;;;;19.23;8.85;;;;;;;2.93;59.68;99436.31;5094595;28;20060;-76
2021/01/27 05:53:55;;;;;;;17.67;7.60;;;;;;;2.96;59.47;99438.84;5094177;28;20119;-74
2021/01/27 05:56:23;;;;;;;20.75;9.52;;;;;;;2.99;59.42;99440.50;5094593;28;20135;-75
2021/01/27 05:59:00;;;;;;;16.17;8.15;;;;;;;2.96;59.46;99433.66;5094321;28;20062;-75
2021/01/27 06:01:39;;;;;;;14.00;7.55;;;;;;;2.95;59.57;99439.72;5092228;28;20052;-75
2021/01/27 06:04:22;;;;;;;15.15;7.32;;;;;;;2.95;59.51;99441.47;5095270;28;20055;-75
2021/01/27 06:07:01;;;;;;;12.93;7.82;;;;;;;2.91;59.52;99450.16;5094991;28;20068;-78
2021/01/27 06:09:34;;;;;;;13.55;7.28;;;;;;;2.91;59.51;99447.56;5092432;28;20132;-78
2021/01/27 06:12:01;;;;;;;11.98;6.82;;;;;;;2.92;59.36;99449.28;5082557;28;20050;-76
2021/01/27 06:14:28;;;;;;;10.63;6.75;;;;;;;2.90;59.47;99451.03;5084997;28;20058;-76
2021/01/27 06:16:55;;;;;;;13.73;6.88;;;;;;;2.92;59.39;99457.06;5084202;28;20576;-75
2021/01/27 06:19:25;;;;;;;11.73;7.03;;;;;;;2.91;59.29;99447.56;5083034;28;20756;-79
2021/01/27 06:22:29;;;;;;;14.63;7.50;;;;;;;2.88;59.41;99463.16;5074959;28;20051;-77
2021/01/27 06:25:09;;;;;;;22.92;10.65;;;;;;;2.90;59.49;99456.22;5083991;28;20044;-76
2021/01/27 06:28:13;;;;;;;11.15;6.35;;;;;;;2.94;59.16;99473.41;5092375;28;20513;-75
2021/01/27 06:30:52;;;;;;;25.95;12.13;;;;;;;2.94;59.25;99466.50;5086536;28;20044;-76
2021/01/27 06:33:48;;;;;;;25.92;9.80;;;;;;;2.96;59.31;99469.06;5088421;28;20570;-76
2021/01/27 06:36:46;;;;;;;23.58;10.48;;;;;;;2.96;59.16;99475.09;5091665;28;20075;-79
2021/01/27 06:39:36;;;;;;;16.23;9.30;;;;;;;2.96;59.35;99476.81;5092387;28;20132;-79
2021/01/27 06:42:22;;;;;;;18.00;8.52;;;;;;;2.95;59.30;99475.97;5092106;28;20536;-79
2021/01/27 06:45:06;;;;;;;15.13;9.35;;;;;;;2.89;59.31;99470.03;5092535;28;20051;-79
2021/01/27 06:48:14;;;;;;;13.55;7.45;;;;;;;2.88;59.25;99474.38;5093670;28;20415;-80
2021/01/27 06:51:07;;;;;;;10.80;6.72;;;;;;;2.84;59.27;99477.06;5093776;28;20513;-79
2021/01/27 06:53:56;;;;;;;14.23;6.78;;;;;;;2.82;59.25;99477.09;5094292;28;20093;-79
2021/01/27 06:57:02;;;;;;;10.57;5.75;;;;;;;2.87;59.24;99484.75;5094461;28;20040;-78
2021/01/27 07:00:10;;;;;;;14.02;7.30;;;;;;;2.91;59.37;99491.56;5087471;28;20152;-79
2021/01/27 07:02:55;;;;;;;15.00;6.30;;;;;;;2.92;59.32;99488.97;5093129;28;20378;-79
2021/01/27 07:05:49;;;;;;;10.30;5.93;;;;;;;2.95;59.22;99493.25;5092957;28;20483;-78
2021/01/27 07:08:30;;;;;;;14.13;7.95;;;;;;;3.02;59.03;99484.47;5064578;28;20487;-79
2021/01/27 07:11:06;;;;;;;16.02;7.85;;;;;;;3.09;58.83;99495.53;5073740;28;20053;-78
2021/01/27 07:14:08;;;;;;;11.60;6.38;;;;;;;3.11;58.79;99494.63;5073393;28;20055;-79
2021/01/27 07:16:52;;;;;;;10.18;5.85;;;;;;;3.08;58.79;99502.47;5073268;28;20052;-78
2021/01/27 07:19:43;;;;;;;12.57;6.78;;;;;;;3.10;59.03;99492.91;5081866;28;20054;-78
2021/01/27 07:22:16;;;;;;;17.27;7.27;;;;;;;3.15;58.75;99488.53;5093570;28;20044;-79
2021/01/27 07:24:52;;;;;;;10.90;6.68;;;;;;;3.19;58.46;99497.06;5093305;28;20076;-79
2021/01/27 07:27:20;;;;;;;15.43;7.32;;;;;;;3.22;58.46;99494.41;5093418;28;20052;-78
2021/01/27 07:29:50;;;;;;;16.35;7.50;;;;;;;3.22;58.46;99489.25;5092599;28;20040;-79
2021/01/27 07:32:22;;;;;;;14.95;7.32;;;;;;;3.22;58.45;99497.00;5092360;28;20131;-79
2021/01/27 07:34:54;;;;;;;13.77;7.78;;;;;;;3.24;58.59;99488.31;5093110;28;20056;-79
2021/01/27 07:37:29;;;;;;;18.77;9.60;;;;;;;3.26;58.68;99491.72;5092318;28;20464;-78
2021/01/27 07:40:02;;;;;;;19.33;9.00;;;;;;;3.30;58.41;99492.50;5093253;28;20058;-78
2021/01/27 07:42:35;;;;;;;19.20;8.82;;;;;;;3.28;58.47;99495.13;5093048;28;20113;-78
2021/01/27 07:45:06;;;;;;;24.83;12.05;;;;;;;3.37;58.20;99494.09;5093071;28;20048;-78
2021/01/27 07:47:46;;;;;;;16.40;8.23;;;;;;;3.39;58.32;99507.03;5093233;28;20532;-79
2021/01/27 07:50:13;;;;;;;14.05;8.15;;;;;;;3.35;58.22;99498.47;5093045;28;20491;-79
2021/01/27 07:52:53;;;;;;;12.90;6.60;;;;;;;3.35;58.13;99501.91;5093017;28;20091;-78
2021/01/27 07:55:23;;;;;;;14.77;7.78;;;;;;;3.42;58.02;99499.19;5093308;28;20461;-78
2021/01/27 07:57:57;;;;;;;17.75;8.15;;;;;;;3.36;58.32;99482.03;5093229;28;20050;-78
2021/01/27 08:00:30;;;;;;;17.52;8.40;;;;;;;3.32;58.29;99501.94;5092118;28;20131;-78
2021/01/27 08:03:33;;;;;;;17.05;8.25;;;;;;;3.41;58.22;99510.44;5091811;28;20414;-79
2021/01/27 08:06:04;;;;;;;17.13;7.78;;;;;;;3.43;57.84;99513.84;5069477;28;20122;-78
2021/01/27 08:08:42;;;;;;;14.38;7.13;;;;;;;3.42;57.91;99514.72;5092340;28;20483;-79
2021/01/27 08:11:15;;;;;;;15.00;8.63;;;;;;;3.51;57.98;99517.13;5093942;28;20047;-78
2021/01/27 08:13:43;;;;;;;13.80;8.07;;;;;;;3.54;57.96;99523.09;5093698;28;20453;-79
2021/01/27 08:16:35;;;;;;;13.13;6.75;;;;;;;3.48;58.18;99518.03;5094798;28;20094;-78
2021/01/27 08:19:27;;;;;;;;;;;;;;;3.63;57.70;99522.03;5093264;28;20055;-79
2021/01/27 08:21:59;;;;;;;14.25;8.15;;;;;;;3.43;58.17;99519.03;5093128;28;20393;-80
2021/01/27 08:24:49;;;;;;;12.75;7.00;;;;;;;3.41;58.32;99511.28;5092741;28;20444;-78
2021/01/27 08:27:34;;;;;;;15.80;7.32;;;;;;;3.42;58.32;99513.00;5092497;28;20502;-79
2021/01/27 08:30:15;;;;;;;10.95;6.57;;;;;;;3.47;57.99;99515.47;5087869;28;20055;-78
2021/01/27 08:32:43;;;;;;;11.73;6.90;;;;;;;3.57;57.86;99517.00;5092071;28;20104;-78
2021/01/27 08:35:11;;;;;;;11.30;6.57;;;;;;;3.56;57.99;99515.31;5099200;28;20101;-78
2021/01/27 08:37:41;;;;;;;12.50;6.90;;;;;;;3.51;57.78;99522.28;5097490;28;20483;-79
2021/01/27 08:40:22;;;;;;;13.77;7.22;;;;;;;3.50;58.10;99530.97;5093608;28;20177;-79
2021/01/27 08:42:52;;;;;;;16.88;8.70;;;;;;;3.54;57.69;99533.47;5090916;28;20080;-79
2021/01/27 08:45:29;;;;;;;13.43;6.72;;;;;;;3.53;57.92;99533.47;5085372;28;20044;-80
2021/01/27 08:47:57;;;;;;;12.23;7.18;;;;;;;3.63;57.78;99540.19;5083097;28;20208;-79
2021/01/27 08:50:41;;;;;;;18.27;8.55;;;;;;;3.77;57.50;99530.38;5082942;28;20044;-78
2021/01/27 08:53:09;;;;;;;14.60;7.63;;;;;;;3.85;57.11;99540.56;5084097;28;20487;-79
2021/01/27 08:56:01;;;;;;;16.45;8.55;;;;;;;3.93;57.11;99530.88;5083297;28;20109;-80
2021/01/27 08:58:37;;;;;;;17.85;8.65;;;;;;;3.88;57.08;99543.09;5082516;28;20549;-80
2021/01/27 09:01:10;;;;;;;19.38;9.40;;;;;;;3.96;57.01;99541.19;5084611;28;20040;-80
2021/01/27 09:04:01;;;;;;;13.90;8.57;;;;;;;4.11;56.95;99545.16;5100644;28;20127;-80
2021/01/27 09:06:41;;;;;;;16.75;8.60;;;;;;;4.09;56.75;99552.13;5094368;28;20079;-79
2021/01/27 09:09:27;;;;;;;23.65;10.23;;;;;;;3.97;57.23;99554.13;5083733;28;20059;-79
2021/01/27 09:12:04;;;;;;;22.33;9.32;;;;;;;3.86;57.39;99547.47;5085635;28;20052;-78
2021/01/27 09:14:30;;;;;;;16.48;7.78;;;;;;;3.77;57.58;99555.47;5088430;28;20041;-78
2021/01/27 09:16:57;;;;;;;13.60;8.07;;;;;;;3.65;57.76;99546.19;5085819;28;20127;-79
2021/01/27 09:19:28;;;;;;;21.63;9.07;;;;;;;3.59;58.08;99542.00;5086935;28;20048;-78
2021/01/27 09:22:05;;;;;;;15.60;7.73;;;;;;;3.61;57.75;99557.50;5086274;28;20131;-78
2021/01/27 09:24:40;;;;;;;16.17;8.00;;;;;;;3.60;57.70;99561.00;5084715;28;20571;-78
2021/01/27 09:27:17;;;;;;;11.05;7.03;;;;;;;3.61;57.57;99554.91;5086096;28;20079;-79
2021/01/27 09:29:43;;;;;;;15.00;7.50;;;;;;;3.59;57.78;99573.09;5084473;28;20047;-80
2021/01/27 09:32:16;;;;;;;16.05;8.68;;;;;;;3.56;57.98;99549.00;5086871;28;20049;-79
2021/01/27 09:34:43;;;;;;;13.82;8.35;;;;;;;3.60;57.66;99545.44;5089430;28;20138;-80
2021/01/27 09:37:14;;;;;;;15.48;8.40;;;;;;;3.62;57.74;99552.28;5085480;28;20044;-80
2021/01/27 09:39:44;;;;;;;25.83;12.50;;;;;;;3.75;57.38;99560.69;5088913;28;20072;-80
2021/01/27 09:42:19;;;;;;;13.57;8.82;;;;;;;3.82;57.30;99559.66;5083573;28;20369;-80
2021/01/27 09:44:47;;;;;;;18.88;10.25;;;;;;;3.89;57.11;99550.84;5089702;28;20138;-80
2021/01/27 09:47:15;;;;;;;16.70;9.13;;;;;;;3.93;57.06;99555.06;5087550;28;20079;-80
2021/01/27 09:49:47;;;;;;;12.48;8.85;;;;;;;4.00;57.12;99557.53;5089176;28;20135;-79
2021/01/27 09:52:15;;;;;;;16.52;8.95;;;;;;;4.08;56.88;99555.59;5091007;28;20238;-80
2021/01/27 09:54:43;;;;;;;20.00;10.25;;;;;;;4.13;56.90;99554.59;5092605;28;21131;-79
2021/01/27 09:57:11;;;;;;;17.80;9.85;;;;;;;4.21;56.82;99562.22;5090498;28;20074;-80
2021/01/27 09:59:39;;;;;;;19.88;9.10;;;;;;;4.17;56.70;99558.84;5083387;28;20402;-80
2021/01/27 10:02:10;;;;;;;18.38;8.93;;;;;;;4.14;56.75;99560.66;5085369;28;20144;-80
2021/01/27 10:04:38;;;;;;;12.80;8.77;;;;;;;4.13;56.76;99559.78;5086546;28;20048;-78
2021/01/27 10:07:09;;;;;;;23.17;10.77;;;;;;;4.25;56.57;99556.06;5088041;28;20432;-79
2021/01/27 10:09:41;;;;;;;;;;;;;;;4.49;56.17;99555.47;5091155;28;20047;-80
2021/01/27 10:12:11;;;;;;;11.80;6.60;;;;;;;4.52;56.19;99551.94;5086021;28;20006;-80
2021/01/27 10:14:41;;;;;;;14.57;8.80;;;;;;;4.70;55.73;99546.28;5088390;28;20128;-79
2021/01/27 10:17:11;;;;;;;15.55;8.30;;;;;;;4.80;55.62;99557.31;5087117;28;20135;-81
2021/01/27 10:19:43;;;;;;;15.73;7.93;;;;;;;4.77;55.57;99553.03;5088756;28;20522;-79
2021/01/27 10:22:11;;;;;;;16.58;9.27;;;;;;;4.70;55.67;99551.50;5085299;28;20044;-81
2021/01/27 10:24:45;;;;;;;17.77;9.32;;;;;;;4.68;55.85;99560.22;5082618;28;20052;-78
2021/01/27 10:27:18;;;;;;;23.20;12.25;;;;;;;4.68;55.84;99560.22;5086198;28;20147;-80
2021/01/27 10:29:45;;;;;;;32.40;13.65;;;;;;;4.78;55.57;99559.91;5091619;28;20064;-79
2021/01/27 10:32:35;;;;;;;21.85;11.65;;;;;;;4.91;55.44;99555.28;5091589;28;20040;-81
2021/01/27 10:35:03;;;;;;;19.85;9.60;;;;;;;5.04;54.87;99559.25;5079693;28;20047;-82
2021/01/27 10:37:35;;;;;;;18.27;10.13;;;;;;;5.09;54.74;99554.78;5085679;28;20217;-79
2021/01/27 10:40:11;;;;;;;20.65;10.60;;;;;;;5.08;55.13;99547.88;5095002;28;20418;-78
2021/01/27 10:42:39;;;;;;;25.90;13.23;;;;;;;4.96;54.95;99560.34;5087240;28;20636;-79
2021/01/27 10:45:31;;;;;;;18.80;10.82;;;;;;;4.84;55.42;99564.13;5082321;28;20045;-80
2021/01/27 10:48:06;;;;;;;22.30;11.20;;;;;;;4.92;54.89;99571.72;5082143;28;20040;-79
2021/01/27 10:50:33;;;;;;;21.02;11.93;;;;;;;4.93;55.14;99563.88;5087847;28;20044;-81
2021/01/27 10:53:01;;;;;;;16.10;9.82;;;;;;;4.88;55.21;99563.16;5086097;28;20048;-78
2021/01/27 10:55:32;;;;;;;14.75;9.27;;;;;;;4.78;55.08;99559.06;5086447;28;20168;-79
2021/01/27 10:58:04;;;;;;;16.95;8.93;;;;;;;4.83;55.05;99563.28;5084938;28;20040;-78
2021/01/27 11:00:31;;;;;;;;;;;;;;;5.04;54.75;99561.00;5086777;28;20127;-79
2021/01/27 11:02:57;;;;;;;19.10;10.57;;;;;;;4.95;54.82;99550.84;5085344;28;19924;-78
2021/01/27 11:05:23;;;;;;;23.48;12.40;;;;;;;4.94;54.97;99564.72;5090733;28;20060;-79
2021/01/27 11:07:49;;;;;;;15.13;8.68;;;;;;;4.99;54.51;99561.09;5086149;28;20908;-79
2021/01/27 11:10:16;;;;;;;12.25;8.60;;;;;;;5.01;54.50;99561.94;5091646;28;20060;-78
2021/01/27 11:12:42;;;;;;;14.68;8.93;;;;;;;4.93;54.48;99569.06;5089339;28;20130;-79
2021/01/27 11:15:10;;;;;;;18.92;9.52;;;;;;;4.94;54.77;99565.56;5089249;28;20599;-79
2021/01/27 11:17:37;;;;;;;15.93;8.65;;;;;;;4.88;54.57;99570.94;5090991;28;20065;-79
2021/01/27 11:20:04;;;;;;;18.80;9.35;;;;;;;4.85;54.59;99565.81;5090855;28;20160;-80
2021/01/27 11:22:30;;;;;;;19.52;10.10;;;;;;;4.88;54.50;99574.38;5087179;28;20075;-80
2021/01/27 11:24:56;;;;;;;15.75;8.27;;;;;;;4.91;54.17;99570.84;5085142;28;20500;-79
2021/01/27 11:27:22;;;;;;;18.55;10.13;;;;;;;4.90;54.51;99576.94;5079701;28;20127;-80
2021/01/27 11:29:49;;;;;;;17.35;8.43;;;;;;;5.01;54.36;99572.34;5075627;28;20123;-80
2021/01/27 11:32:15;;;;;;;19.27;10.60;;;;;;;5.19;53.81;99566.63;5081685;28;20072;-80
2021/01/27 11:34:42;;;;;;;19.00;9.25;;;;;;;5.19;53.84;99574.41;5088305;28;20419;-80
2021/01/27 11:37:09;;;;;;;13.55;8.15;;;;;;;4.97;53.96;99575.88;5086553;28;20206;-81
2021/01/27 11:39:35;;;;;;;21.52;10.25;;;;;;;4.95;54.21;99577.66;5087395;28;20043;-80
2021/01/27 11:42:01;;;;;;;13.52;8.40;;;;;;;5.09;53.76;99574.72;5086011;28;20130;-80
2021/01/27 11:44:28;;;;;;;19.95;11.85;;;;;;;5.02;54.14;99581.84;5094590;28;20071;-80
2021/01/27 11:46:54;;;;;;;22.67;10.07;;;;;;;5.06;53.87;99580.84;5091914;28;20060;-82
2021/01/27 11:49:20;;;;;;;24.10;14.55;;;;;;;5.14;53.77;99572.84;5088322;28;20036;-80
2021/01/27 11:51:48;;;;;;;19.38;10.82;;;;;;;5.19;53.49;99576.16;5087587;28;20499;-78
2021/01/27 11:54:14;;;;;;;20.15;11.55;;;;;;;5.23;53.47;99576.97;5086336;28;20040;-77
2021/01/27 11:56:41;;;;;;;20.38;10.55;;;;;;;5.17;53.31;99568.41;5089641;28;20044;-78
2021/01/27 11:59:09;;;;;;;18.95;9.77;;;;;;;5.15;53.38;99575.41;5087863;28;20056;-77